Terminal Aerodrome Forecast
Issued by NWS Shreveport, LA

Home | Current Version | Previous Version | Text Only | Print | Product List | Glossary On
Versions: 1 2 3 4 5 6 7 8 9 10 11 12 13 14 15 16 17 18 19 20 21 22 23
000
FTUS44 KSHV 192300
TAFLFK
TAF
KLFK 192336Z 2000/2024 12004KT P6SM FEW045
     FM201000 15004KT 5SM BR SKC
      TEMPO 2011/2013 2SM BR
     FM201500 11006KT P6SM FEW035=

USA.gov is the U.S. government's official web portal to all federal, state and local government web resources and services.